createdAt,value
2023-11-27T00:01:11.433Z,5.60
2023-11-27T00:03:40.650Z,5.50
2023-11-27T00:06:10.010Z,5.50
2023-11-27T00:08:38.700Z,5.50
2023-11-27T00:11:07.702Z,5.50
2023-11-27T00:13:36.113Z,5.50
2023-11-27T00:16:04.893Z,5.50
2023-11-27T00:18:34.518Z,5.50
2023-11-27T00:21:02.784Z,5.40
2023-11-27T00:23:31.335Z,5.40
2023-11-27T00:25:59.874Z,5.30
2023-11-27T00:28:28.600Z,5.30
2023-11-27T00:30:57.322Z,5.30
2023-11-27T00:33:25.558Z,5.20
2023-11-27T00:35:55.149Z,5.10
2023-11-27T00:38:23.724Z,5.10
2023-11-27T00:40:52.578Z,5.10
2023-11-27T00:43:21.216Z,5.10
2023-11-27T00:45:49.934Z,5.10
2023-11-27T00:48:18.320Z,5.00
2023-11-27T00:50:46.520Z,4.90
2023-11-27T00:53:19.465Z,4.90
2023-11-27T00:55:49.343Z,4.90
2023-11-27T00:58:17.807Z,5.00
2023-11-27T01:00:46.363Z,5.10
2023-11-27T01:03:14.838Z,5.00
2023-11-27T01:05:44.620Z,5.00
2023-11-27T01:08:14.610Z,4.90
2023-11-27T01:10:44.560Z,4.90
2023-11-27T01:13:13.506Z,4.90
2023-11-27T01:15:43.444Z,4.90
2023-11-27T01:18:12.485Z,5.00
2023-11-27T01:20:41.608Z,4.90
2023-11-27T01:23:09.772Z,4.90
2023-11-27T01:25:38.234Z,4.90
2023-11-27T01:28:08.013Z,4.90
2023-11-27T01:30:36.355Z,4.90
2023-11-27T01:33:06.645Z,4.90
2023-11-27T01:35:35.380Z,4.80
2023-11-27T01:38:03.608Z,4.80
2023-11-27T01:40:32.026Z,4.80
2023-11-27T01:43:01.406Z,4.90
2023-11-27T01:45:33.244Z,4.90
2023-11-27T01:48:01.860Z,4.90
2023-11-27T01:50:30.384Z,4.80
2023-11-27T01:52:59.179Z,4.80
2023-11-27T01:55:29.315Z,4.80
2023-11-27T01:57:58.436Z,4.80
2023-11-27T02:00:26.933Z,4.80
2023-11-27T02:02:58.398Z,4.80
2023-11-27T02:05:26.987Z,4.80
2023-11-27T02:07:55.454Z,4.90
2023-11-27T02:10:23.767Z,5.00
2023-11-27T02:12:52.155Z,5.00
2023-11-27T02:15:20.409Z,4.80
2023-11-27T02:17:48.915Z,4.90
2023-11-27T02:20:19.199Z,4.90
2023-11-27T02:22:48.218Z,5.00
2023-11-27T02:25:18.107Z,5.00
2023-11-27T02:27:46.734Z,4.90
2023-11-27T02:30:15.189Z,5.00
2023-11-27T02:32:43.719Z,5.00
2023-11-27T02:35:12.144Z,5.00
2023-11-27T02:37:40.988Z,4.90
2023-11-27T02:40:12.158Z,4.90
2023-11-27T02:42:42.108Z,5.00
2023-11-27T02:45:11.772Z,5.00
2023-11-27T02:47:40.200Z,5.10
2023-11-27T02:50:09.676Z,5.10
2023-11-27T02:52:37.924Z,5.10
2023-11-27T02:55:08.363Z,5.10
2023-11-27T02:57:36.923Z,5.10
2023-11-27T03:00:08.048Z,5.20
2023-11-27T03:02:36.419Z,5.30
2023-11-27T03:05:06.019Z,5.30
2023-11-27T03:07:34.256Z,5.30
2023-11-27T03:10:02.731Z,5.20
2023-11-27T03:12:31.251Z,5.20
2023-11-27T03:14:59.429Z,5.30
2023-11-27T03:17:29.090Z,5.20
2023-11-27T03:19:57.705Z,5.20
2023-11-27T03:22:26.056Z,5.20
2023-11-27T03:24:54.452Z,5.20
2023-11-27T03:27:23.694Z,5.30
2023-11-27T03:29:51.913Z,5.30
2023-11-27T03:32:20.246Z,5.40
2023-11-27T03:34:50.057Z,5.40
2023-11-27T03:37:18.380Z,5.30
2023-11-27T03:39:46.660Z,5.40
2023-11-27T03:42:15.136Z,5.30
2023-11-27T03:44:43.350Z,5.30
2023-11-27T03:47:11.556Z,5.40
2023-11-27T03:49:39.893Z,5.40
2023-11-27T03:52:09.841Z,5.40
2023-11-27T03:54:38.027Z,5.40
2023-11-27T03:57:07.398Z,5.40
2023-11-27T03:59:35.620Z,5.50
2023-11-27T04:02:04.044Z,5.40
2023-11-27T04:04:32.785Z,5.30
2023-11-27T04:07:01.677Z,5.40
2023-11-27T04:09:31.293Z,5.50
2023-11-27T04:12:00.060Z,5.40
2023-11-27T04:14:28.226Z,5.50
2023-11-27T04:16:56.568Z,5.40
2023-11-27T04:19:25.362Z,5.50
2023-11-27T04:21:53.692Z,5.50
2023-11-27T04:24:21.942Z,5.60
2023-11-27T04:26:51.798Z,5.60
2023-11-27T04:29:20.059Z,5.60
2023-11-27T04:31:48.368Z,5.50
2023-11-27T04:34:17.249Z,5.50
2023-11-27T04:36:45.678Z,5.60
2023-11-27T04:39:16.091Z,5.60
2023-11-27T04:41:44.553Z,5.60
2023-11-27T04:44:14.153Z,5.60
2023-11-27T04:46:42.561Z,5.80
2023-11-27T04:49:13.212Z,5.80
2023-11-27T04:51:41.668Z,5.80
2023-11-27T04:54:09.882Z,5.80
2023-11-27T04:56:38.595Z,5.70
2023-11-27T04:59:08.991Z,5.80
2023-11-27T05:01:40.597Z,5.90
2023-11-27T05:04:08.973Z,5.80
2023-11-27T05:06:37.280Z,5.90
2023-11-27T05:09:07.337Z,6.00
2023-11-27T05:11:35.612Z,5.90
2023-11-27T05:14:03.819Z,5.80
2023-11-27T05:16:33.172Z,5.70
2023-11-27T05:19:02.982Z,5.70
2023-11-27T05:21:31.266Z,5.70
2023-11-27T05:24:00.011Z,5.80
2023-11-27T05:26:28.479Z,5.80
2023-11-27T05:28:56.703Z,5.80
2023-11-27T05:31:25.581Z,5.80
2023-11-27T05:33:54.015Z,5.90
2023-11-27T05:36:24.824Z,5.90
2023-11-27T05:38:53.606Z,5.90
2023-11-27T05:41:23.443Z,5.90
2023-11-27T05:43:52.421Z,5.90
2023-11-27T05:46:20.933Z,6.00
2023-11-27T05:48:49.291Z,6.00
2023-11-27T05:51:18.626Z,5.90
2023-11-27T05:53:48.918Z,6.00
2023-11-27T05:56:17.462Z,6.00
2023-11-27T05:58:45.731Z,5.90
2023-11-27T06:01:14.494Z,5.80
2023-11-27T06:03:43.557Z,5.80
2023-11-27T06:06:14.323Z,5.80
2023-11-27T06:08:44.825Z,5.90
2023-11-27T06:11:15.064Z,5.90
2023-11-27T06:13:43.683Z,5.90
2023-11-27T06:16:13.266Z,5.90
2023-11-27T06:18:41.909Z,5.80
2023-11-27T06:21:13.205Z,5.90
2023-11-27T06:23:41.511Z,5.90
2023-11-27T06:26:13.357Z,5.90
2023-11-27T06:28:43.365Z,6.00
2023-11-27T06:31:12.018Z,6.10
2023-11-27T06:33:40.515Z,6.10
2023-11-27T06:36:09.525Z,6.20
2023-11-27T06:38:37.921Z,6.20
2023-11-27T06:41:07.543Z,6.20
2023-11-27T06:43:35.929Z,6.30
2023-11-27T06:46:06.061Z,6.30
2023-11-27T06:48:34.407Z,6.30
2023-11-27T06:51:03.614Z,6.30
2023-11-27T06:53:32.296Z,6.40
2023-11-27T06:56:00.521Z,6.40
2023-11-27T06:58:29.163Z,6.40
2023-11-27T07:00:59.387Z,6.40
2023-11-27T07:03:29.062Z,6.30
2023-11-27T07:05:57.494Z,6.40
2023-11-27T07:08:25.743Z,6.40
2023-11-27T07:10:55.784Z,6.40
2023-11-27T07:13:28.338Z,6.30
2023-11-27T07:15:57.116Z,6.30
2023-11-27T07:18:29.102Z,6.40
2023-11-27T07:21:01.702Z,6.50
2023-11-27T07:23:30.624Z,6.40
2023-11-27T07:25:58.792Z,6.40
2023-11-27T07:28:28.055Z,6.40
2023-11-27T07:30:57.546Z,6.40
2023-11-27T07:33:26.283Z,6.40
2023-11-27T07:35:54.759Z,6.50
2023-11-27T07:38:24.648Z,6.50
2023-11-27T07:40:53.400Z,6.50
2023-11-27T07:43:21.927Z,6.50
2023-11-27T07:45:50.270Z,6.50
2023-11-27T07:48:19.731Z,6.60
2023-11-27T07:50:48.126Z,6.50
2023-11-27T07:53:16.383Z,6.50
2023-11-27T07:55:47.641Z,6.50
2023-11-27T07:58:17.058Z,6.50
2023-11-27T08:00:45.755Z,6.50
2023-11-27T08:03:13.937Z,6.50
2023-11-27T08:05:42.483Z,6.60
2023-11-27T08:08:12.139Z,6.70
2023-11-27T08:10:40.514Z,6.70
2023-11-27T08:13:11.132Z,6.60
2023-11-27T08:15:39.444Z,6.50
2023-11-27T08:18:08.003Z,6.60
2023-11-27T08:20:39.686Z,6.60
2023-11-27T08:23:08.093Z,6.60
2023-11-27T08:25:36.555Z,6.60
2023-11-27T08:28:05.356Z,6.70
2023-11-27T08:30:35.132Z,6.80
2023-11-27T08:33:03.859Z,6.70
2023-11-27T08:35:35.524Z,6.80
2023-11-27T08:38:04.065Z,6.70
2023-11-27T08:40:32.444Z,6.70
2023-11-27T08:43:02.442Z,6.80
2023-11-27T08:45:30.738Z,6.70
2023-11-27T08:48:03.621Z,6.90
2023-11-27T08:50:36.760Z,6.80
2023-11-27T08:53:08.739Z,6.90
2023-11-27T08:55:37.635Z,6.90
2023-11-27T08:58:06.426Z,6.90
2023-11-27T09:00:36.712Z,6.90
2023-11-27T09:03:07.827Z,6.90
2023-11-27T09:05:38.758Z,6.90
2023-11-27T09:08:08.382Z,6.90
2023-11-27T09:10:38.144Z,6.90
2023-11-27T09:13:07.630Z,7.00
2023-11-27T09:15:37.132Z,7.00
2023-11-27T09:18:08.088Z,7.00
2023-11-27T09:20:37.019Z,7.10
2023-11-27T09:23:05.303Z,7.20
2023-11-27T09:25:35.127Z,7.20
2023-11-27T09:28:03.768Z,7.10
2023-11-27T09:30:32.104Z,7.10
2023-11-27T09:33:01.092Z,7.10
2023-11-27T09:35:31.380Z,7.20
2023-11-27T09:37:59.804Z,7.10
2023-11-27T09:40:28.821Z,7.10
2023-11-27T09:42:57.144Z,7.10
2023-11-27T09:45:25.460Z,7.10
2023-11-27T09:47:54.251Z,7.10
2023-11-27T09:50:23.762Z,7.10
2023-11-27T09:53:06.821Z,7.10
2023-11-27T09:55:37.276Z,7.10
2023-11-27T09:58:06.881Z,7.30
2023-11-27T10:00:35.431Z,7.30
2023-11-27T10:03:05.086Z,7.30
2023-11-27T10:05:33.493Z,7.40
2023-11-27T10:08:05.081Z,7.30
2023-11-27T10:10:33.692Z,7.40
2023-11-27T10:13:09.530Z,7.50
2023-11-27T10:15:50.134Z,7.40
2023-11-27T10:18:21.208Z,7.50
2023-11-27T10:20:52.127Z,7.40
2023-11-27T10:23:23.158Z,7.50
2023-11-27T10:25:58.165Z,7.50
2023-11-27T10:28:28.278Z,7.50
2023-11-27T10:30:56.513Z,7.50
2023-11-27T10:33:25.262Z,7.50
2023-11-27T10:35:56.906Z,7.60
2023-11-27T10:38:26.852Z,7.60
2023-11-27T10:40:56.009Z,7.60
2023-11-27T10:43:25.073Z,7.50
2023-11-27T10:45:58.744Z,7.60
2023-11-27T10:48:37.804Z,7.70
2023-11-27T10:51:15.103Z,7.80
2023-11-27T10:53:47.980Z,7.80
2023-11-27T10:56:19.194Z,7.70
2023-11-27T10:58:51.862Z,7.70
2023-11-27T11:01:26.475Z,7.80
2023-11-27T11:04:02.326Z,7.80
2023-11-27T11:06:31.518Z,7.80
2023-11-27T11:09:05.138Z,7.80
2023-11-27T11:11:33.355Z,7.70
2023-11-27T11:14:02.424Z,7.70
2023-11-27T11:16:37.785Z,7.80
2023-11-27T11:19:13.780Z,7.80
2023-11-27T11:21:56.796Z,7.80
2023-11-27T11:24:35.217Z,7.70
2023-11-27T11:27:18.571Z,7.80
2023-11-27T11:29:47.230Z,7.80
2023-11-27T11:32:18.222Z,7.80
2023-11-27T11:34:51.585Z,7.80
2023-11-27T11:37:21.912Z,7.80
2023-11-27T11:39:55.272Z,7.90
2023-11-27T11:42:27.955Z,7.80
2023-11-27T11:45:07.755Z,7.80
2023-11-27T11:47:41.159Z,7.80
2023-11-27T11:50:30.205Z,7.80
2023-11-27T11:53:00.219Z,7.90
2023-11-27T11:55:33.395Z,8.00
2023-11-27T11:58:05.764Z,8.10
2023-11-27T12:00:46.031Z,8.10
2023-11-27T12:03:18.182Z,8.20
2023-11-27T12:05:51.666Z,8.10
2023-11-27T12:08:20.855Z,8.10
2023-11-27T12:10:50.338Z,8.10
2023-11-27T12:13:22.102Z,8.10
2023-11-27T12:15:51.421Z,8.10
2023-11-27T12:18:21.420Z,8.20
2023-11-27T12:20:51.453Z,8.20
2023-11-27T12:23:20.309Z,8.20
2023-11-27T12:25:50.404Z,8.20
2023-11-27T12:28:21.456Z,8.30
2023-11-27T12:30:51.478Z,8.30
2023-11-27T12:33:22.143Z,8.30
2023-11-27T12:35:53.239Z,8.30
2023-11-27T12:38:22.201Z,8.30
2023-11-27T12:40:53.461Z,8.30
2023-11-27T12:43:22.039Z,8.30
2023-11-27T12:45:58.861Z,8.30
2023-11-27T12:48:28.040Z,8.40
2023-11-27T12:51:00.579Z,8.40
2023-11-27T12:53:29.317Z,8.40
2023-11-27T12:55:59.041Z,8.50
2023-11-27T12:58:28.740Z,8.50
2023-11-27T13:00:59.143Z,8.50
2023-11-27T13:03:31.399Z,8.50
2023-11-27T13:06:01.487Z,8.50
2023-11-27T13:08:34.008Z,8.60
2023-11-27T13:11:06.833Z,8.60
2023-11-27T13:13:35.635Z,8.60
2023-11-27T13:16:07.654Z,8.60
2023-11-27T13:18:36.879Z,8.70
2023-11-27T13:21:10.437Z,8.70
2023-11-27T13:23:39.253Z,8.90
2023-11-27T13:26:20.760Z,8.90
2023-11-27T13:28:49.043Z,8.80
2023-11-27T13:31:17.942Z,8.80
2023-11-27T13:33:46.471Z,8.90
2023-11-27T13:36:20.469Z,8.90
2023-11-27T13:38:50.140Z,8.90
2023-11-27T13:41:19.830Z,9.00
2023-11-27T13:43:49.022Z,9.00
2023-11-27T13:46:17.822Z,9.00
2023-11-27T13:48:46.301Z,9.10
2023-11-27T13:51:17.223Z,9.00
2023-11-27T13:53:48.470Z,9.00
2023-11-27T13:56:20.835Z,9.00
2023-11-27T13:58:53.925Z,9.10
2023-11-27T14:01:23.781Z,9.10
2023-11-27T14:03:53.462Z,9.10
2023-11-27T14:06:24.767Z,9.20
2023-11-27T14:09:04.288Z,9.20
2023-11-27T14:11:35.341Z,9.20
2023-11-27T14:14:08.922Z,9.20
2023-11-27T14:16:45.604Z,9.20
2023-11-27T14:19:32.945Z,9.30
2023-11-27T14:22:18.848Z,9.30
2023-11-27T14:24:59.142Z,9.30
2023-11-27T14:27:39.984Z,9.30
2023-11-27T14:30:14.938Z,9.40
2023-11-27T14:32:43.829Z,9.40
2023-11-27T14:35:16.578Z,9.40
2023-11-27T14:37:45.145Z,9.40
2023-11-27T14:40:21.908Z,9.40
2023-11-27T14:42:51.884Z,9.40
2023-11-27T14:45:21.955Z,9.40
2023-11-27T14:47:51.478Z,9.50
2023-11-27T14:50:29.535Z,9.50
2023-11-27T14:52:58.623Z,9.50
2023-11-27T14:55:26.848Z,9.60
2023-11-27T14:57:57.003Z,9.60
2023-11-27T15:00:29.835Z,9.60
2023-11-27T15:02:58.838Z,9.60
2023-11-27T15:05:30.245Z,9.70
2023-11-27T15:08:01.165Z,9.70
2023-11-27T15:10:29.756Z,9.70
2023-11-27T15:12:58.042Z,9.70
2023-11-27T15:15:28.441Z,9.60
2023-11-27T15:17:57.074Z,9.70
2023-11-27T15:20:28.115Z,9.70
2023-11-27T15:22:58.429Z,9.80
2023-11-27T15:25:26.931Z,9.80
2023-11-27T15:27:57.270Z,9.80
2023-11-27T15:30:30.069Z,9.70
2023-11-27T15:33:01.228Z,9.80
2023-11-27T15:35:31.593Z,9.70
2023-11-27T15:38:01.049Z,9.80
2023-11-27T15:40:32.215Z,9.80
2023-11-27T15:43:01.149Z,9.80
2023-11-27T15:45:30.815Z,9.80
2023-11-27T15:48:00.349Z,9.80
2023-11-27T15:50:31.842Z,9.90
2023-11-27T15:53:02.137Z,9.90
2023-11-27T15:55:31.393Z,9.80
2023-11-27T15:58:01.831Z,9.90
2023-11-27T16:00:33.045Z,9.80
2023-11-27T16:03:02.884Z,9.90
2023-11-27T16:05:32.526Z,9.90
2023-11-27T16:08:02.280Z,9.90
2023-11-27T16:10:33.644Z,9.80
2023-11-27T16:13:02.428Z,9.80
2023-11-27T16:15:35.696Z,9.80
2023-11-27T16:18:07.844Z,9.90
2023-11-27T16:20:41.547Z,9.90
2023-11-27T16:23:10.482Z,9.90
2023-11-27T16:25:39.064Z,9.80
2023-11-27T16:28:13.341Z,9.70
2023-11-27T16:30:43.246Z,9.60
2023-11-27T16:33:11.661Z,9.50
2023-11-27T16:35:42.411Z,9.50
2023-11-27T16:38:10.898Z,9.40
2023-11-27T16:40:40.517Z,9.40
2023-11-27T16:43:11.497Z,9.40
2023-11-27T16:45:40.133Z,9.40
2023-11-27T16:48:10.327Z,9.40
2023-11-27T16:50:39.071Z,9.40
2023-11-27T16:53:08.187Z,9.30
2023-11-27T16:55:37.909Z,9.30
2023-11-27T16:58:07.653Z,9.20
2023-11-27T17:00:38.167Z,9.20
2023-11-27T17:03:11.121Z,9.20
2023-11-27T17:05:39.869Z,9.10
2023-11-27T17:08:11.696Z,9.10
2023-11-27T17:10:42.360Z,9.10
2023-11-27T17:13:12.293Z,9.10
2023-11-27T17:15:45.492Z,9.10
2023-11-27T17:18:19.213Z,9.10
2023-11-27T17:20:48.308Z,9.00
2023-11-27T17:23:18.215Z,9.10
2023-11-27T17:25:47.851Z,8.90
2023-11-27T17:28:16.678Z,8.90
2023-11-27T17:30:46.421Z,8.80
2023-11-27T17:33:16.380Z,8.80
2023-11-27T17:35:45.379Z,8.80
2023-11-27T17:38:13.772Z,8.80
2023-11-27T17:40:43.100Z,8.80
2023-11-27T17:43:13.974Z,8.80
2023-11-27T17:45:45.760Z,8.80
2023-11-27T17:48:17.684Z,8.70
2023-11-27T17:50:47.360Z,8.60
2023-11-27T17:53:18.521Z,8.60
2023-11-27T17:55:55.063Z,8.70
2023-11-27T17:58:25.962Z,8.60
2023-11-27T18:00:55.212Z,8.60
2023-11-27T18:03:25.042Z,8.60
2023-11-27T18:05:54.138Z,8.60
2023-11-27T18:08:22.728Z,8.60
2023-11-27T18:10:51.614Z,8.50
2023-11-27T18:13:20.318Z,8.50
2023-11-27T18:15:49.127Z,8.60
2023-11-27T18:18:19.353Z,8.60
2023-11-27T18:20:49.848Z,8.50
2023-11-27T18:23:22.945Z,8.40
2023-11-27T18:25:52.577Z,8.40
2023-11-27T18:28:20.945Z,8.40
2023-11-27T18:30:49.233Z,8.50
2023-11-27T18:33:17.840Z,8.50
2023-11-27T18:35:47.617Z,8.50
2023-11-27T18:38:17.287Z,8.40
2023-11-27T18:40:48.703Z,8.50
2023-11-27T18:43:17.141Z,8.40
2023-11-27T18:45:45.601Z,8.40
2023-11-27T18:48:14.414Z,8.40
2023-11-27T18:50:46.981Z,8.20
2023-11-27T18:53:17.087Z,8.30
2023-11-27T18:55:45.823Z,8.20
2023-11-27T18:58:15.369Z,8.10
2023-11-27T19:00:44.552Z,8.10
2023-11-27T19:03:16.552Z,8.10
2023-11-27T19:05:47.085Z,8.00
2023-11-27T19:08:16.827Z,7.90
2023-11-27T19:10:45.193Z,7.80
2023-11-27T19:13:13.931Z,8.10
2023-11-27T19:15:46.750Z,8.10
2023-11-27T19:18:18.116Z,8.00
2023-11-27T19:20:46.446Z,8.00
2023-11-27T19:23:16.459Z,7.90
2023-11-27T19:25:45.117Z,7.90
2023-11-27T19:28:13.443Z,7.90
2023-11-27T19:30:44.575Z,7.80
2023-11-27T19:33:13.492Z,7.80
2023-11-27T19:35:42.292Z,7.80
2023-11-27T19:38:16.125Z,7.80
2023-11-27T19:40:49.847Z,7.60
2023-11-27T19:43:18.178Z,7.60
2023-11-27T19:45:46.763Z,7.50
2023-11-27T19:48:15.242Z,7.60
2023-11-27T19:50:44.845Z,7.50
2023-11-27T19:53:15.261Z,7.50
2023-11-27T19:55:43.851Z,7.40
2023-11-27T19:58:13.601Z,7.30
2023-11-27T20:00:41.971Z,7.30
2023-11-27T20:03:12.717Z,7.30
2023-11-27T20:05:42.048Z,7.30
2023-11-27T20:08:11.425Z,7.10
2023-11-27T20:10:39.825Z,7.10
2023-11-27T20:13:10.459Z,6.90
2023-11-27T20:15:40.551Z,6.90
2023-11-27T20:18:09.447Z,7.00
2023-11-27T20:20:38.129Z,6.90
2023-11-27T20:23:09.697Z,6.90
2023-11-27T20:25:37.220Z,6.80
2023-11-27T20:28:05.936Z,6.90
2023-11-27T20:30:34.566Z,6.90
2023-11-27T20:33:05.265Z,6.90
2023-11-27T20:35:33.807Z,6.90
2023-11-27T20:38:02.381Z,6.80
2023-11-27T20:40:30.784Z,6.80
2023-11-27T20:42:59.345Z,6.80
2023-11-27T20:45:28.220Z,6.80
2023-11-27T20:47:56.662Z,6.70
2023-11-27T20:50:26.430Z,6.70
2023-11-27T20:52:55.287Z,6.70
2023-11-27T20:55:24.626Z,6.70
2023-11-27T20:57:53.239Z,6.50
2023-11-27T21:00:23.389Z,6.50
2023-11-27T21:02:51.781Z,6.40
2023-11-27T21:05:20.912Z,6.30
2023-11-27T21:07:51.912Z,6.30
2023-11-27T21:10:20.598Z,6.30
2023-11-27T21:12:48.905Z,6.30
2023-11-27T21:15:18.015Z,6.30
2023-11-27T21:17:46.430Z,6.20
2023-11-27T21:20:16.483Z,6.10
2023-11-27T21:22:46.722Z,6.00
2023-11-27T21:25:18.723Z,5.90
2023-11-27T21:27:49.173Z,5.90
2023-11-27T21:30:19.202Z,5.80
2023-11-27T21:32:48.671Z,5.90
2023-11-27T21:35:17.256Z,5.90
2023-11-27T21:37:46.359Z,5.90
2023-11-27T21:40:17.672Z,5.90
2023-11-27T21:42:46.040Z,5.80
2023-11-27T21:45:14.905Z,5.90
2023-11-27T21:47:43.404Z,6.00
2023-11-27T21:50:12.284Z,6.00
2023-11-27T21:52:40.940Z,6.00
2023-11-27T21:55:10.452Z,6.00
2023-11-27T21:57:41.046Z,6.00
2023-11-27T22:00:12.184Z,5.80
2023-11-27T22:02:42.299Z,5.70
2023-11-27T22:05:11.518Z,5.60
2023-11-27T22:07:41.125Z,5.60
2023-11-27T22:10:11.364Z,5.50
2023-11-27T22:12:43.273Z,5.40
2023-11-27T22:15:14.644Z,5.40
2023-11-27T22:17:43.535Z,5.30
2023-11-27T22:20:19.753Z,5.30
2023-11-27T22:22:48.729Z,5.20
2023-11-27T22:25:17.677Z,5.10
2023-11-27T22:27:47.480Z,5.20
2023-11-27T22:30:16.344Z,5.30
2023-11-27T22:32:44.908Z,5.40
2023-11-27T22:35:13.438Z,5.40
2023-11-27T22:37:42.093Z,5.30
2023-11-27T22:40:11.840Z,5.40
2023-11-27T22:42:41.809Z,5.30
2023-11-27T22:45:12.872Z,5.10
2023-11-27T22:47:41.606Z,5.20
2023-11-27T22:50:11.099Z,5.00
2023-11-27T22:52:39.795Z,5.00
2023-11-27T22:55:08.546Z,5.00
2023-11-27T22:57:36.779Z,4.90
2023-11-27T23:00:11.898Z,4.80
2023-11-27T23:02:42.892Z,4.70
2023-11-27T23:05:19.245Z,4.60
2023-11-27T23:07:47.654Z,4.60
2023-11-27T23:10:16.003Z,4.50
2023-11-27T23:12:45.278Z,4.40
2023-11-27T23:15:13.888Z,4.30
2023-11-27T23:17:43.974Z,4.30
2023-11-27T23:20:13.210Z,4.20
2023-11-27T23:22:41.715Z,4.20
2023-11-27T23:25:10.447Z,4.20
2023-11-27T23:27:38.870Z,4.20
2023-11-27T23:30:08.895Z,4.20
2023-11-27T23:32:37.136Z,4.10
2023-11-27T23:35:07.953Z,4.30
2023-11-27T23:37:36.861Z,4.20
2023-11-27T23:40:06.549Z,4.30
2023-11-27T23:42:34.991Z,4.30
2023-11-27T23:45:03.366Z,4.30
2023-11-27T23:47:31.678Z,4.30
2023-11-27T23:50:00.398Z,4.20
2023-11-27T23:52:30.596Z,4.20
2023-11-27T23:54:58.849Z,4.30
2023-11-27T23:57:28.377Z,4.40
2023-11-27T23:59:56.726Z,4.30
